WET,Max TemperatureF,Mean TemperatureF,Min TemperatureF,Max Dew PointF,MeanDew PointF,Min DewpointF,Max Humidity, Mean Humidity, Min Humidity, Max Sea Level PressureIn, Mean Sea Level PressureIn, Min Sea Level PressureIn, Max VisibilityMiles, Mean VisibilityMiles, Min VisibilityMiles, Max Wind SpeedMPH, Mean Wind SpeedMPH, Max Gust SpeedMPH,PrecipitationIn, CloudCover, Events, WindDirDegrees
2011-10-1,78,72,64,64,63,59,88,76,57,30.01,29.96,29.92,5,5,3,10,5,,0.00,6,,225
2011-10-2,82,70,59,66,62,55,94,83,51,30.21,30.04,29.92,5,3,0,17,4,,0.00,5,,229
2011-10-3,93,80,68,66,59,50,94,58,23,30.21,30.12,30.04,6,4,1,20,8,,0.00,6,,68
2011-10-4,96,82,69,63,56,48,78,49,20,30.09,30.04,29.92,6,6,6,16,5,,0.00,,,204
2011-10-5,82,72,62,64,62,57,94,76,42,30.04,30.02,29.95,6,5,3,16,6,,0.00,3,,258
2011-10-6,87,73,59,64,58,52,94,64,29,30.09,30.02,29.95,6,5,3,21,5,,0.00,2,,234
2011-10-7,93,78,62,63,55,45,83,53,20,30.06,30.02,29.95,6,6,6,18,7,,0.00,1,,106
2011-10-8,80,70,60,64,61,57,100,79,51,30.06,30.00,29.95,6,4,0,12,5,,0.00,4,Fog,186
2011-10-9,86,72,57,63,60,54,94,77,33,30.09,30.03,29.98,6,5,2,13,6,,0.00,5,,214
2011-10-10,98,80,62,61,49,36,88,47,11,30.12,30.08,30.04,5,5,4,17,8,,0.00,3,,91
2011-10-11,95,78,62,52,44,37,64,35,14,30.18,30.10,30.04,6,6,6,22,7,,0.00,,,21
2011-10-12,87,74,62,59,51,45,82,48,25,30.12,30.04,29.98,6,6,6,13,6,,0.00,,,256
2011-10-13,91,74,57,61,53,41,83,58,18,30.06,30.01,29.95,6,6,6,17,6,,0.00,3,,237
2011-10-14,91,76,60,59,51,39,83,48,16,30.04,29.97,29.89,6,6,6,15,8,,0.00,3,,42
2011-10-15,86,72,59,61,55,46,88,62,27,30.04,29.99,29.95,6,6,4,15,6,,0.00,2,,155
2011-10-16,80,70,59,59,57,54,88,68,44,30.04,30.00,29.98,6,5,4,12,6,,0.00,3,,246
2011-10-17,82,70,59,63,60,54,94,77,45,30.06,30.02,29.98,6,4,0,13,5,,0.00,5,Fog,237
2011-10-18,82,72,62,64,60,55,88,76,42,30.06,30.02,29.95,6,4,3,10,5,,0.00,4,,216
2011-10-19,87,73,59,64,56,45,94,75,22,30.09,30.06,30.01,6,4,0,12,4,,0.00,5,Fog,185
2011-10-20,77,67,57,59,56,50,83,67,44,30.06,30.00,29.95,6,6,6,13,5,,0.00,3,,242
2011-10-21,78,71,64,61,60,57,88,73,54,29.98,29.92,29.86,6,6,5,14,5,,0.00,5,,224
2011-10-22,77,68,59,61,59,55,88,72,50,30.04,29.94,29.89,6,6,5,15,6,,0.00,5,,210
2011-10-23,77,68,59,61,57,55,88,74,47,30.04,29.99,29.95,6,6,6,15,3,,0.00,4,,209
2011-10-24,77,65,53,63,56,52,94,77,41,30.01,29.95,29.89,6,6,6,12,5,,0.00,4,,66
2011-10-25,71,66,62,63,61,59,94,85,69,29.95,29.88,29.83,6,6,3,9,6,,0.00,5,,228
2011-10-26,77,68,59,61,59,57,94,79,50,30.04,29.97,29.92,6,6,6,16,5,,0.00,2,,126
2011-10-27,75,66,57,61,59,55,94,80,57,30.06,30.00,29.92,6,5,3,17,6,,0.00,4,,126
2011-10-28,77,65,53,57,53,45,94,68,34,30.01,29.96,29.92,6,6,6,9,5,,0.00,,,223
2011-10-29,75,64,53,57,54,50,94,74,50,30.06,30.01,29.98,,,,12,4,,0.00,,,256
2011-10-30,80,66,53,55,52,46,94,63,30,30.04,29.99,29.95,6,6,6,12,6,,0.00,,,115
2011-10-31,82,70,59,59,51,43,88,58,26,30.01,29.97,29.95,6,6,6,14,7,,0.00,,,122